Time;durP1;ratioP1;P1;durP2;ratioP2;P2;SDS_P1;SDS_P2;PMS_P1;PMS_P2;Temp;Humidity;BMP_temperature;BMP_pressure;BME280_temperature;BME280_humidity;BME280_pressure;Samples;Min_cycle;Max_cycle;Signal;HPM_P1;HPM_P2
2022/06/14 03:56:20;;;;;;;18.30;13.50;;;;;;;;;;5114728;22;20265;-40
2022/06/14 03:59:02;;;;;;;23.90;14.65;;;;;;;;;;5078022;28;20222;-40
2022/06/14 04:01:41;;;;;;;17.30;14.15;;;;;;;;;;5074087;28;20235;-41
2022/06/14 04:04:26;;;;;;;20.50;14.63;;;;;;;;;;5078325;28;20230;-39
2022/06/14 04:07:19;;;;;;;25.45;14.02;;;;;;;;;;5075288;28;20297;-39
2022/06/14 04:10:16;;;;;;;23.00;13.80;;;;;;;;;;5066541;28;20226;-40
2022/06/14 04:12:56;;;;;;;21.50;14.27;;;;;;;;;;5075257;28;20665;-39
2022/06/14 04:15:34;;;;;;;23.45;14.20;;;;;;;;;;5075181;28;20234;-40
2022/06/14 04:18:34;;;;;;;20.20;13.45;;;;;;;;;;5066107;28;20313;-39
2022/06/14 04:21:14;;;;;;;21.90;14.35;;;;;;;;;;5095237;28;20234;-40
2022/06/14 04:23:52;;;;;;;20.38;15.05;;;;;;;;;;5095080;28;20654;-41
2022/06/14 04:26:19;;;;;;;22.25;14.70;;;;;;;;;;5095080;28;20226;-38
2022/06/14 04:28:59;;;;;;;22.17;14.60;;;;;;;;;;5094763;28;20250;-38
2022/06/14 04:31:35;;;;;;;18.00;14.07;;;;;;;;;;5094655;28;20539;-39
2022/06/14 04:34:26;;;;;;;18.83;15.68;;;;;;;;;;5077847;28;20245;-37
2022/06/14 04:37:00;;;;;;;20.85;13.40;;;;;;;;;;5077451;28;20222;-39
2022/06/14 04:39:33;;;;;;;18.83;13.80;;;;;;;;;;5077089;28;20567;-39
2022/06/14 04:42:08;;;;;;;19.27;13.05;;;;;;;;;;5061575;28;20663;-39
2022/06/14 04:44:46;;;;;;;16.25;11.90;;;;;;;;;;5072498;28;20313;-41
2022/06/14 04:47:24;;;;;;;19.42;11.95;;;;;;;;;;5056106;28;20235;-38
2022/06/14 04:49:59;;;;;;;15.85;10.55;;;;;;;;;;5056982;28;20227;-41
2022/06/14 04:52:33;;;;;;;15.25;9.95;;;;;;;;;;5056967;28;20231;-40
2022/06/14 04:55:04;;;;;;;14.65;9.30;;;;;;;;;;5055410;28;20242;-39
2022/06/14 04:57:36;;;;;;;15.85;8.88;;;;;;;;;;5074233;28;20227;-38
2022/06/14 05:00:06;;;;;;;14.57;9.27;;;;;;;;;;5074582;28;20242;-38
2022/06/14 05:02:48;;;;;;;17.40;8.65;;;;;;;;;;5073816;28;20258;-37
2022/06/14 05:05:47;;;;;;;12.05;7.50;;;;;;;;;;5074579;28;20230;-38
2022/06/14 05:08:17;;;;;;;16.05;7.28;;;;;;;;;;5012271;28;20225;-38
2022/06/14 05:10:52;;;;;;;12.80;6.93;;;;;;;;;;5013849;28;20654;-38
2022/06/14 05:13:42;;;;;;;13.80;6.93;;;;;;;;;;5013908;28;20711;-38
2022/06/14 05:16:18;;;;;;;13.60;6.53;;;;;;;;;;4997728;28;20201;-38
2022/06/14 05:19:19;;;;;;;16.35;6.43;;;;;;;;;;4997730;28;20666;-37
2022/06/14 05:21:59;;;;;;;14.18;6.10;;;;;;;;;;4997776;28;20226;-37
2022/06/14 05:24:26;;;;;;;15.05;5.47;;;;;;;;;;4997550;28;20229;-37
2022/06/14 05:27:25;;;;;;;12.45;5.50;;;;;;;;;;5013516;28;20212;-38
2022/06/14 05:30:33;;;;;;;8.13;4.88;;;;;;;;;;4997871;28;20200;-38
2022/06/14 05:33:13;;;;;;;11.38;5.43;;;;;;;;;;5013505;28;20211;-39
2022/06/14 05:35:46;;;;;;;14.07;5.35;;;;;;;;;;5013540;28;20186;-38
2022/06/14 05:38:42;;;;;;;9.43;4.80;;;;;;;;;;5013570;28;20279;-38
2022/06/14 05:41:15;;;;;;;13.25;5.03;;;;;;;;;;5013341;28;20221;-38
2022/06/14 05:43:47;;;;;;;8.18;3.97;;;;;;;;;;5019251;28;20649;-38
2022/06/14 05:46:20;;;;;;;15.40;4.88;;;;;;;;;;5074776;28;20207;-38
2022/06/14 05:49:15;;;;;;;10.90;4.35;;;;;;;;;;5075080;28;20210;-38
2022/06/14 05:52:04;;;;;;;10.48;3.88;;;;;;;;;;5057460;28;20636;-38
2022/06/14 05:54:46;;;;;;;12.70;4.00;;;;;;;;;;5057896;28;20196;-38
2022/06/14 05:57:23;;;;;;;9.55;4.00;;;;;;;;;;5057450;28;20675;-38
2022/06/14 05:59:55;;;;;;;11.35;3.60;;;;;;;;;;5057230;28;20199;-40
2022/06/14 06:02:32;;;;;;;9.40;3.65;;;;;;;;;;5074947;28;20219;-38
2022/06/14 06:05:22;;;;;;;10.82;4.20;;;;;;;;;;5075003;28;20187;-39
2022/06/14 06:07:57;;;;;;;8.07;3.78;;;;;;;;;;5057576;28;20192;-39
2022/06/14 06:10:34;;;;;;;8.52;3.65;;;;;;;;;;5074315;28;20183;-38
2022/06/14 06:13:07;;;;;;;7.20;3.28;;;;;;;;;;5057206;28;20207;-38
2022/06/14 06:15:45;;;;;;;15.18;3.35;;;;;;;;;;5057239;28;20203;-38
2022/06/14 06:18:19;;;;;;;12.15;3.58;;;;;;;;;;5074687;28;20203;-38
2022/06/14 06:21:05;;;;;;;7.32;3.10;;;;;;;;;;5074490;28;20583;-38
2022/06/14 06:23:45;;;;;;;9.82;3.17;;;;;;;;;;5074707;28;20207;-38
2022/06/14 06:26:14;;;;;;;9.77;2.88;;;;;;;;;;5057601;28;20199;-38
2022/06/14 06:28:51;;;;;;;9.50;2.95;;;;;;;;;;5057163;28;20207;-38
2022/06/14 06:31:21;;;;;;;11.35;2.80;;;;;;;;;;5057083;28;20298;-38
2022/06/14 06:33:51;;;;;;;5.47;2.40;;;;;;;;;;5057574;28;20207;-38
2022/06/14 06:36:27;;;;;;;7.22;2.78;;;;;;;;;;5057741;28;20203;-38
2022/06/14 06:39:08;;;;;;;9.35;2.72;;;;;;;;;;5074571;28;20192;-38
2022/06/14 06:41:50;;;;;;;4.78;2.35;;;;;;;;;;5056980;28;20215;-38
2022/06/14 06:44:34;;;;;;;6.18;2.22;;;;;;;;;;5028714;28;20199;-38
2022/06/14 06:47:13;;;;;;;8.23;2.28;;;;;;;;;;5057210;28;20184;-39
2022/06/14 06:49:53;;;;;;;4.88;1.83;;;;;;;;;;5056940;28;20550;-39
2022/06/14 06:52:25;;;;;;;6.45;2.33;;;;;;;;;;5061097;28;20230;-38
2022/06/14 06:55:02;;;;;;;4.95;2.03;;;;;;;;;;5077555;28;20207;-38
2022/06/14 06:57:33;;;;;;;8.02;2.17;;;;;;;;;;5061037;28;20234;-38
2022/06/14 07:00:04;;;;;;;6.15;1.92;;;;;;;;;;5060274;28;20206;-39
2022/06/14 07:02:45;;;;;;;5.95;2.25;;;;;;;;;;5077567;28;20215;-38
2022/06/14 07:05:14;;;;;;;6.10;1.73;;;;;;;;;;5060305;28;20195;-38
2022/06/14 07:07:49;;;;;;;7.60;2.28;;;;;;;;;;5060119;28;20253;-38
2022/06/14 07:10:20;;;;;;;5.75;2.13;;;;;;;;;;5060622;28;20269;-38
2022/06/14 07:13:21;;;;;;;10.80;1.90;;;;;;;;;;5077414;28;20214;-38
2022/06/14 07:16:13;;;;;;;8.15;1.70;;;;;;;;;;5015913;28;20649;-38
2022/06/14 07:18:45;;;;;;;10.55;2.00;;;;;;;;;;4999960;28;20553;-38
2022/06/14 07:21:25;;;;;;;4.15;1.75;;;;;;;;;;5016156;28;20240;-38
2022/06/14 07:23:59;;;;;;;7.63;1.42;;;;;;;;;;5015740;28;20220;-38
2022/06/14 07:26:41;;;;;;;6.97;1.58;;;;;;;;;;4999969;28;20271;-38
2022/06/14 07:29:15;;;;;;;8.25;1.95;;;;;;;;;;5015925;28;20543;-38
2022/06/14 07:31:55;;;;;;;6.53;1.60;;;;;;;;;;5015609;28;20213;-37
2022/06/14 07:34:23;;;;;;;7.30;1.70;;;;;;;;;;5016056;28;20601;-38
2022/06/14 07:36:58;;;;;;;6.90;1.55;;;;;;;;;;5015781;28;20240;-38
2022/06/14 07:39:59;;;;;;;7.05;1.55;;;;;;;;;;5015687;28;20212;-38
2022/06/14 07:42:57;;;;;;;7.45;1.58;;;;;;;;;;4996225;28;20220;-38
2022/06/14 07:45:36;;;;;;;9.43;1.75;;;;;;;;;;4999261;28;20288;-38
2022/06/14 07:48:14;;;;;;;7.85;1.42;;;;;;;;;;5015418;28;20220;-38
2022/06/14 07:50:46;;;;;;;5.65;1.42;;;;;;;;;;5028206;28;20264;-38
2022/06/14 07:53:28;;;;;;;7.10;1.42;;;;;;;;;;5059965;28;20202;-38
2022/06/14 07:56:21;;;;;;;3.97;1.27;;;;;;;;;;5076882;28;20227;-38
2022/06/14 07:58:54;;;;;;;4.10;1.38;;;;;;;;;;5069091;28;20222;-38
2022/06/14 08:01:25;;;;;;;6.50;1.40;;;;;;;;;;5076789;28;20223;-38
2022/06/14 08:04:03;;;;;;;5.82;1.42;;;;;;;;;;5042934;28;20210;-38
2022/06/14 08:06:53;;;;;;;3.60;1.40;;;;;;;;;;5058942;28;20215;-38
2022/06/14 08:09:29;;;;;;;4.20;1.45;;;;;;;;;;5076085;28;20501;-38
2022/06/14 08:11:58;;;;;;;5.90;1.23;;;;;;;;;;5059229;28;20293;-37
2022/06/14 08:14:56;;;;;;;6.15;1.40;;;;;;;;;;5075981;28;20218;-39
2022/06/14 08:17:50;;;;;;;5.43;1.10;;;;;;;;;;5058617;28;20516;-38
2022/06/14 08:20:28;;;;;;;3.67;1.23;;;;;;;;;;5068336;28;20258;-38
2022/06/14 08:22:58;;;;;;;8.27;1.20;;;;;;;;;;5059279;28;20222;-38
2022/06/14 08:25:29;;;;;;;7.80;1.15;;;;;;;;;;5076226;28;20191;-38
2022/06/14 08:28:17;;;;;;;4.57;1.20;;;;;;;;;;5042426;28;20679;-39
2022/06/14 08:31:08;;;;;;;4.82;1.10;;;;;;;;;;5076010;28;20188;-38
2022/06/14 08:33:43;;;;;;;3.70;1.33;;;;;;;;;;5058548;28;20218;-38
2022/06/14 08:36:15;;;;;;;4.00;1.33;;;;;;;;;;5058755;28;20203;-38
2022/06/14 08:39:07;;;;;;;5.55;1.08;;;;;;;;;;5058223;28;20199;-38
2022/06/14 08:41:37;;;;;;;2.58;0.80;;;;;;;;;;5053536;28;20238;-38
2022/06/14 08:44:12;;;;;;;6.00;1.30;;;;;;;;;;5075424;28;20213;-38
2022/06/14 08:46:52;;;;;;;3.60;1.00;;;;;;;;;;5058969;28;20203;-38
2022/06/14 08:49:27;;;;;;;5.40;1.00;;;;;;;;;;5076169;28;20529;-38
2022/06/14 08:52:18;;;;;;;5.43;1.10;;;;;;;;;;5075715;28;20215;-38
2022/06/14 08:55:14;;;;;;;5.32;1.20;;;;;;;;;;5075246;28;20195;-38
2022/06/14 08:57:57;;;;;;;7.53;1.58;;;;;;;;;;5058133;28;20229;-38
2022/06/14 09:00:39;;;;;;;5.85;1.02;;;;;;;;;;5075717;28;20222;-38
2022/06/14 09:03:31;;;;;;;3.90;0.90;;;;;;;;;;5075178;28;20721;-38
2022/06/14 09:06:10;;;;;;;4.63;1.00;;;;;;;;;;5058071;28;20187;-38
2022/06/14 09:08:52;;;;;;;7.38;1.40;;;;;;;;;;5057975;28;20210;-38
2022/06/14 09:11:47;;;;;;;4.30;0.80;;;;;;;;;;5075187;28;20237;-39
2022/06/14 09:15:03;;;;;;;6.80;1.10;;;;;;;;;;5074589;28;20199;-38
2022/06/14 09:17:48;;;;;;;5.80;1.10;;;;;;;;;;5014207;28;20205;-38
2022/06/14 09:20:22;;;;;;;5.22;1.00;;;;;;;;;;5013668;28;20228;-38
2022/06/14 09:22:51;;;;;;;3.88;1.05;;;;;;;;;;5014124;28;20291;-38
2022/06/14 09:26:00;;;;;;;5.85;1.27;;;;;;;;;;5013901;28;20205;-38
2022/06/14 09:28:46;;;;;;;3.70;0.90;;;;;;;;;;5014282;28;20212;-38
2022/06/14 09:31:29;;;;;;;3.50;1.00;;;;;;;;;;5013819;28;20213;-38
2022/06/14 09:34:14;;;;;;;15.35;1.50;;;;;;;;;;5013635;28;20746;-38
2022/06/14 09:37:00;;;;;;;3.50;1.17;;;;;;;;;;5013529;28;20220;-39
2022/06/14 09:39:57;;;;;;;3.58;1.10;;;;;;;;;;4997311;28;20224;-38
2022/06/14 09:42:36;;;;;;;5.32;0.82;;;;;;;;;;4997476;28;20232;-38
2022/06/14 09:45:22;;;;;;;4.50;1.10;;;;;;;;;;5013475;28;20213;-38
2022/06/14 09:48:08;;;;;;;4.68;1.05;;;;;;;;;;4997756;28;20205;-38
2022/06/14 09:50:45;;;;;;;3.20;0.90;;;;;;;;;;5013568;28;20233;-38
2022/06/14 09:53:37;;;;;;;4.40;0.90;;;;;;;;;;5033536;28;20215;-38
2022/06/14 09:56:07;;;;;;;3.85;0.90;;;;;;;;;;5074986;28;20234;-39
2022/06/14 09:58:49;;;;;;;5.88;1.00;;;;;;;;;;5074994;28;20212;-38
2022/06/14 10:01:25;;;;;;;2.83;0.90;;;;;;;;;;5074584;28;20619;-38
2022/06/14 10:04:20;;;;;;;6.22;1.08;;;;;;;;;;5052843;28;20231;-38
2022/06/14 10:06:58;;;;;;;6.68;0.65;;;;;;;;;;5053128;28;20200;-38
2022/06/14 10:09:28;;;;;;;4.53;1.08;;;;;;;;;;5052903;28;20294;-39
2022/06/14 10:12:14;;;;;;;6.05;1.02;;;;;;;;;;5036400;28;20208;-39
2022/06/14 10:15:07;;;;;;;4.38;0.80;;;;;;;;;;5052849;28;20227;-38
2022/06/14 10:18:14;;;;;;;2.50;0.90;;;;;;;;;;5036563;28;20188;-38
2022/06/14 10:20:47;;;;;;;3.65;0.75;;;;;;;;;;5052785;28;20208;-38
2022/06/14 10:23:29;;;;;;;2.45;0.80;;;;;;;;;;5052651;28;20224;-38
2022/06/14 10:29:29;;;;;;;3.13;1.10;;;;;;;;;;5044207;28;20265;-38
2022/06/14 10:32:05;;;;;;;3.83;1.10;;;;;;;;;;5056816;28;20207;-38
2022/06/14 10:34:57;;;;;;;6.82;1.00;;;;;;;;;;5064054;28;20195;-38
2022/06/14 10:37:43;;;;;;;5.75;1.10;;;;;;;;;;5061361;28;20257;-38
2022/06/14 10:40:33;;;;;;;6.82;1.13;;;;;;;;;;5078403;28;20183;-38
2022/06/14 10:43:12;;;;;;;5.60;1.15;;;;;;;;;;5061082;28;20234;-39
2022/06/14 10:45:54;;;;;;;4.82;1.20;;;;;;;;;;5078124;28;20246;-38
2022/06/14 10:48:33;;;;;;;3.28;0.85;;;;;;;;;;5061031;28;20207;-39
2022/06/14 10:51:28;;;;;;;1.88;0.82;;;;;;;;;;5078146;28;20191;-38
2022/06/14 10:54:16;;;;;;;6.63;0.73;;;;;;;;;;5078435;28;20211;-38
2022/06/14 10:57:09;;;;;;;3.75;1.00;;;;;;;;;;5060290;28;20289;-38
2022/06/14 11:00:03;;;;;;;3.03;0.90;;;;;;;;;;5074802;28;20207;-38
2022/06/14 11:02:45;;;;;;;6.25;1.45;;;;;;;;;;5077445;28;20231;-38
2022/06/14 11:05:12;;;;;;;7.13;0.90;;;;;;;;;;5077868;28;20203;-38
2022/06/14 11:07:49;;;;;;;4.57;1.00;;;;;;;;;;5077525;28;20586;-38
2022/06/14 11:10:54;;;;;;;3.42;1.20;;;;;;;;;;5060019;28;20214;-38
2022/06/14 11:13:36;;;;;;;1.70;0.80;;;;;;;;;;5058637;28;20211;-38
2022/06/14 11:16:05;;;;;;;2.40;0.73;;;;;;;;;;5077592;28;20203;-38
2022/06/14 11:18:50;;;;;;;4.13;0.65;;;;;;;;;;5043347;28;20207;-38
2022/06/14 11:21:49;;;;;;;7.55;1.00;;;;;;;;;;5077182;28;20207;-38
2022/06/14 11:24:24;;;;;;;4.60;0.80;;;;;;;;;;5059509;28;20561;-38
2022/06/14 11:26:54;;;;;;;3.08;0.98;;;;;;;;;;5060035;28;20207;-38
2022/06/14 11:29:31;;;;;;;8.77;0.90;;;;;;;;;;5077773;28;20195;-39
2022/06/14 11:32:07;;;;;;;3.80;1.00;;;;;;;;;;5077301;28;20178;-38
2022/06/14 11:34:51;;;;;;;2.88;1.02;;;;;;;;;;5059539;28;20285;-38
2022/06/14 11:37:36;;;;;;;2.10;1.20;;;;;;;;;;5076044;28;20211;-38
2022/06/14 11:40:12;;;;;;;6.93;1.10;;;;;;;;;;5059818;28;20267;-38
2022/06/14 11:43:08;;;;;;;4.75;1.25;;;;;;;;;;5059743;28;20219;-38
2022/06/14 11:46:07;;;;;;;7.63;0.93;;;;;;;;;;5009457;28;20229;-44
2022/06/14 11:48:46;;;;;;;2.53;0.90;;;;;;;;;;5001148;28;20337;-40
2022/06/14 11:51:27;;;;;;;3.15;0.98;;;;;;;;;;5004439;28;20253;-37
2022/06/14 11:54:15;;;;;;;5.50;0.98;;;;;;;;;;5006725;28;20229;-39
2022/06/14 11:56:49;;;;;;;3.47;1.10;;;;;;;;;;5005955;28;20309;-38
2022/06/14 11:59:40;;;;;;;2.65;0.77;;;;;;;;;;4994596;28;20602;-41
2022/06/14 12:02:37;;;;;;;1.73;0.70;;;;;;;;;;4993597;28;20316;-38
2022/06/14 12:05:10;;;;;;;2.45;0.85;;;;;;;;;;4994509;28;20229;-38
2022/06/14 12:07:42;;;;;;;4.50;1.15;;;;;;;;;;4994093;28;20321;-38
2022/06/14 12:10:28;;;;;;;3.17;1.00;;;;;;;;;;4994432;28;20234;-37
2022/06/14 12:13:15;;;;;;;2.78;0.98;;;;;;;;;;4994136;28;20698;-37
2022/06/14 12:15:48;;;;;;;5.85;1.10;;;;;;;;;;4974139;28;20230;-37
2022/06/14 12:18:17;;;;;;;8.02;1.17;;;;;;;;;;4994267;28;20225;-39
2022/06/14 12:21:02;;;;;;;7.80;1.05;;;;;;;;;;4994161;28;20717;-38
2022/06/14 12:23:33;;;;;;;2.75;0.90;;;;;;;;;;5067851;28;20235;-40
2022/06/14 12:29:48;;;;;;;5.57;1.08;;;;;;;;;;5074487;28;20620;-37
2022/06/14 12:32:33;;;;;;;6.15;0.80;;;;;;;;;;5012539;28;20325;-39
2022/06/14 12:35:06;;;;;;;5.07;1.10;;;;;;;;;;5013827;28;20694;-37
2022/06/14 12:37:39;;;;;;;7.82;1.30;;;;;;;;;;5013051;28;20244;-38
2022/06/14 12:40:27;;;;;;;5.30;1.15;;;;;;;;;;5013606;28;20224;-38
2022/06/14 12:43:00;;;;;;;3.60;1.00;;;;;;;;;;5013070;28;20272;-38
2022/06/14 12:45:39;;;;;;;4.07;1.00;;;;;;;;;;5012958;28;20256;-39
2022/06/14 12:48:31;;;;;;;5.35;1.35;;;;;;;;;;5012886;28;20360;-38
2022/06/14 12:50:58;;;;;;;4.00;0.90;;;;;;;;;;5013177;28;20239;-38
2022/06/14 12:53:44;;;;;;;5.13;0.88;;;;;;;;;;5012903;28;20240;-38
2022/06/14 12:56:32;;;;;;;3.78;1.00;;;;;;;;;;5013175;28;20240;-38
2022/06/14 12:59:11;;;;;;;3.92;1.00;;;;;;;;;;5012910;28;20233;-38
2022/06/14 13:01:46;;;;;;;6.55;1.60;;;;;;;;;;5012335;28;20225;-38
2022/06/14 13:04:18;;;;;;;2.60;0.90;;;;;;;;;;5053843;28;20235;-38
2022/06/14 13:07:17;;;;;;;11.57;0.90;;;;;;;;;;5069143;28;20255;-41
2022/06/14 13:09:44;;;;;;;1.67;0.60;;;;;;;;;;5031086;28;20365;-39
2022/06/14 13:12:35;;;;;;;9.45;0.93;;;;;;;;;;5054322;28;20573;-37
2022/06/14 13:15:04;;;;;;;1.98;0.65;;;;;;;;;;5053318;28;20232;-38
2022/06/14 13:17:50;;;;;;;3.10;1.00;;;;;;;;;;5069907;28;20224;-39
2022/06/14 13:20:44;;;;;;;5.40;1.10;;;;;;;;;;5054434;28;20235;-37
2022/06/14 13:23:11;;;;;;;4.75;0.88;;;;;;;;;;5069417;28;20574;-38
2022/06/14 13:25:54;;;;;;;4.57;0.80;;;;;;;;;;5052117;28;20691;-40
2022/06/14 13:29:03;;;;;;;4.22;1.30;;;;;;;;;;5054170;28;20229;-41
2022/06/14 13:31:55;;;;;;;2.25;0.90;;;;;;;;;;5051828;28;20230;-41
2022/06/14 13:34:37;;;;;;;4.50;0.88;;;;;;;;;;5053097;28;20250;-39
2022/06/14 13:37:16;;;;;;;9.40;1.10;;;;;;;;;;5053171;28;20625;-38
2022/06/14 13:40:11;;;;;;;2.53;1.00;;;;;;;;;;5053857;28;20269;-39
2022/06/14 13:42:51;;;;;;;3.47;1.00;;;;;;;;;;5052808;28;20243;-39
2022/06/14 13:45:29;;;;;;;4.63;0.80;;;;;;;;;;5053500;28;20223;-39
2022/06/14 13:48:01;;;;;;;6.85;1.00;;;;;;;;;;5054188;28;20223;-39
2022/06/14 13:50:36;;;;;;;5.72;0.90;;;;;;;;;;5053944;28;20234;-39
2022/06/14 13:53:21;;;;;;;2.97;1.25;;;;;;;;;;5053280;28;20227;-38
2022/06/14 13:56:10;;;;;;;6.93;0.90;;;;;;;;;;5045176;28;20228;-40
2022/06/14 13:59:00;;;;;;;12.32;1.15;;;;;;;;;;5049638;28;20228;-40
2022/06/14 14:01:36;;;;;;;4.03;0.90;;;;;;;;;;5047594;28;20224;-41
2022/06/14 14:04:03;;;;;;;6.50;1.00;;;;;;;;;;5056752;28;20261;-39
2022/06/14 14:06:41;;;;;;;4.03;1.20;;;;;;;;;;5055714;28;20243;-40
2022/06/14 14:09:18;;;;;;;2.92;1.00;;;;;;;;;;5057072;28;20540;-39
2022/06/14 14:11:47;;;;;;;9.48;1.10;;;;;;;;;;5055817;28;20232;-39
2022/06/14 14:14:45;;;;;;;4.80;1.13;;;;;;;;;;5057474;28;20289;-39
2022/06/14 14:17:24;;;;;;;3.58;0.93;;;;;;;;;;5055020;28;20228;-40
2022/06/14 14:20:01;;;;;;;3.20;1.10;;;;;;;;;;5057326;28;20227;-40
2022/06/14 14:22:38;;;;;;;4.53;0.98;;;;;;;;;;5048603;28;20224;-41
2022/06/14 14:25:26;;;;;;;8.07;1.13;;;;;;;;;;5055666;28;20672;-40
2022/06/14 14:28:11;;;;;;;7.20;1.40;;;;;;;;;;5050636;28;20242;-41
2022/06/14 14:30:56;;;;;;;4.03;1.38;;;;;;;;;;5053673;28;20721;-43
2022/06/14 14:33:29;;;;;;;3.88;1.05;;;;;;;;;;5072193;28;20307;-40
2022/06/14 14:36:00;;;;;;;9.65;1.23;;;;;;;;;;5056479;28;20238;-41
2022/06/14 14:38:45;;;;;;;3.95;1.05;;;;;;;;;;5036100;28;20225;-41
2022/06/14 14:41:41;;;;;;;3.58;1.00;;;;;;;;;;5051085;28;20251;-40
2022/06/14 14:44:21;;;;;;;4.55;1.27;;;;;;;;;;5040103;28;20243;-39
2022/06/14 14:46:57;;;;;;;2.60;0.85;;;;;;;;;;5050738;28;20220;-41
2022/06/14 14:49:30;;;;;;;3.17;0.75;;;;;;;;;;5051413;28;20233;-40
2022/06/14 14:52:07;;;;;;;4.97;0.77;;;;;;;;;;5056898;28;20231;-40
2022/06/14 14:54:37;;;;;;;2.17;0.77;;;;;;;;;;5057253;28;20281;-41
2022/06/14 14:57:17;;;;;;;10.45;1.00;;;;;;;;;;5087650;28;20231;-40
2022/06/14 14:59:49;;;;;;;4.50;1.10;;;;;;;;;;5096314;28;20229;-41
2022/06/14 15:05:32;;;;;;;7.95;1.02;;;;;;;;;;5076807;28;20231;-40
2022/06/14 15:08:21;;;;;;;6.75;0.80;;;;;;;;;;5076785;28;20231;-39
2022/06/14 15:11:03;;;;;;;4.40;0.98;;;;;;;;;;5079467;28;20233;-38
2022/06/14 15:13:51;;;;;;;6.15;1.10;;;;;;;;;;5082935;28;20267;-42
2022/06/14 15:16:31;;;;;;;5.22;1.00;;;;;;;;;;5092326;28;20215;-39
2022/06/14 15:21:53;;;;;;;3.45;1.15;;;;;;;;;;5109802;28;20650;-39
2022/06/14 15:24:27;;;;;;;5.93;1.10;;;;;;;;;;5096401;28;20238;-39
2022/06/14 15:27:02;;;;;;;3.13;0.98;;;;;;;;;;5096574;28;20479;-39
2022/06/14 15:29:31;;;;;;;8.52;1.00;;;;;;;;;;5096186;28;20226;-40
2022/06/14 15:32:02;;;;;;;6.35;1.10;;;;;;;;;;5083838;28;20235;-39
2022/06/14 15:34:34;;;;;;;3.28;1.02;;;;;;;;;;5075683;28;20262;-42
2022/06/14 15:37:16;;;;;;;2.17;0.77;;;;;;;;;;5075761;28;20284;-38
2022/06/14 15:39:50;;;;;;;4.72;0.93;;;;;;;;;;5075373;28;20250;-39
2022/06/14 15:42:30;;;;;;;5.13;1.42;;;;;;;;;;5086600;28;20233;-39
2022/06/14 15:44:58;;;;;;;5.53;0.95;;;;;;;;;;5085493;28;20226;-39
2022/06/14 15:47:30;;;;;;;8.57;1.33;;;;;;;;;;5086104;28;20226;-38
2022/06/14 15:49:57;;;;;;;4.45;1.30;;;;;;;;;;5078614;28;20242;-40
2022/06/14 15:52:32;;;;;;;4.38;1.20;;;;;;;;;;5079081;28;20540;-39
2022/06/14 15:55:02;;;;;;;4.75;1.00;;;;;;;;;;5078465;28;20238;-39
2022/06/14 15:57:32;;;;;;;2.63;1.15;;;;;;;;;;5083823;28;20665;-40
2022/06/14 16:00:13;;;;;;;8.48;1.58;;;;;;;;;;5082847;28;20223;-39
2022/06/14 16:02:46;;;;;;;7.10;1.10;;;;;;;;;;5088582;28;20222;-39
2022/06/14 16:05:20;;;;;;;6.55;1.58;;;;;;;;;;5067190;28;20249;-38
2022/06/14 16:07:58;;;;;;;5.50;1.20;;;;;;;;;;5057719;28;20292;-38
2022/06/14 16:10:30;;;;;;;3.85;1.02;;;;;;;;;;5057229;28;20230;-40
2022/06/14 16:13:04;;;;;;;4.88;1.05;;;;;;;;;;5074255;28;20219;-39
2022/06/14 16:15:37;;;;;;;7.32;1.30;;;;;;;;;;5088439;28;20569;-40
2022/06/14 16:18:32;;;;;;;5.22;1.10;;;;;;;;;;5095723;28;20218;-39
2022/06/14 16:21:09;;;;;;;4.13;1.08;;;;;;;;;;5095579;28;20651;-40
2022/06/14 16:23:37;;;;;;;9.45;1.40;;;;;;;;;;5093991;28;20222;-40
2022/06/14 16:26:22;;;;;;;5.38;1.33;;;;;;;;;;5077614;28;20222;-40
2022/06/14 16:29:06;;;;;;;4.35;1.35;;;;;;;;;;5095148;28;20223;-40
2022/06/14 16:31:51;;;;;;;3.90;1.10;;;;;;;;;;5095111;28;20226;-40
2022/06/14 16:34:27;;;;;;;7.07;1.17;;;;;;;;;;5095131;28;20223;-40
2022/06/14 16:37:02;;;;;;;6.78;1.27;;;;;;;;;;5095262;28;20222;-41
2022/06/14 16:39:55;;;;;;;2.22;0.85;;;;;;;;;;5094876;28;20229;-42
2022/06/14 16:42:28;;;;;;;5.40;1.30;;;;;;;;;;5085169;28;20570;-41
2022/06/14 16:45:11;;;;;;;4.18;1.08;;;;;;;;;;5094414;28;20321;-42
2022/06/14 16:48:04;;;;;;;4.65;1.33;;;;;;;;;;5077044;28;20679;-40
2022/06/14 16:50:38;;;;;;;5.03;1.00;;;;;;;;;;5094540;28;20237;-41
2022/06/14 16:53:57;;;;;;;5.25;1.30;;;;;;;;;;5095079;28;20283;-40
2022/06/14 16:56:30;;;;;;;5.50;1.00;;;;;;;;;;5029104;28;20240;-39
2022/06/14 16:59:24;;;;;;;3.35;1.08;;;;;;;;;;5032597;28;20692;-40
2022/06/14 17:02:02;;;;;;;6.30;1.40;;;;;;;;;;5026716;28;20364;-39
2022/06/14 17:04:38;;;;;;;3.38;1.30;;;;;;;;;;5012913;28;20237;-41
2022/06/14 17:07:16;;;;;;;8.68;1.35;;;;;;;;;;4996573;28;20258;-40
2022/06/14 17:10:17;;;;;;;5.15;1.10;;;;;;;;;;5013099;28;20355;-39
2022/06/14 17:13:09;;;;;;;8.65;1.30;;;;;;;;;;5012382;28;20234;-43
2022/06/14 17:15:45;;;;;;;6.90;1.38;;;;;;;;;;5018190;28;20220;-39
2022/06/14 17:18:18;;;;;;;3.72;1.20;;;;;;;;;;5031019;28;20669;-42
2022/06/14 17:21:15;;;;;;;4.85;1.10;;;;;;;;;;5031095;28;20216;-42
2022/06/14 17:23:48;;;;;;;5.80;1.50;;;;;;;;;;5031148;28;20534;-38
2022/06/14 17:32:00;;;;;;;11.90;2.25;;;;;;;;;;5080169;28;20296;-39
2022/06/14 17:34:42;;;;;;;7.55;1.25;;;;;;;;;;5090292;28;20215;-41
2022/06/14 17:37:14;;;;;;;3.58;1.25;;;;;;;;;;5080904;28;20219;-38
2022/06/14 17:39:51;;;;;;;4.45;1.40;;;;;;;;;;5074053;28;20218;-40
2022/06/14 17:42:21;;;;;;;5.22;1.33;;;;;;;;;;5082773;28;20210;-39
2022/06/14 17:45:23;;;;;;;10.63;1.30;;;;;;;;;;5073441;28;20764;-39
2022/06/14 17:48:29;;;;;;;4.75;1.48;;;;;;;;;;5072781;28;20221;-39
2022/06/14 17:51:18;;;;;;;5.82;1.48;;;;;;;;;;5094144;28;20229;-38
2022/06/14 17:53:54;;;;;;;6.78;1.50;;;;;;;;;;5076454;28;20227;-39
2022/06/14 17:56:43;;;;;;;9.55;1.65;;;;;;;;;;5077175;28;20230;-39
2022/06/14 17:59:35;;;;;;;4.93;1.73;;;;;;;;;;5094703;28;20611;-38
2022/06/14 18:02:24;;;;;;;4.80;1.20;;;;;;;;;;5095106;28;20197;-39
2022/06/14 18:04:58;;;;;;;4.13;1.50;;;;;;;;;;5085303;28;20226;-39
2022/06/14 18:07:30;;;;;;;6.95;1.52;;;;;;;;;;5083954;28;20615;-43
2022/06/14 18:10:01;;;;;;;9.18;1.48;;;;;;;;;;5054380;28;20234;-43
2022/06/14 18:13:00;;;;;;;2.88;1.25;;;;;;;;;;5078401;28;20536;-39
2022/06/14 18:15:32;;;;;;;5.93;1.50;;;;;;;;;;5031073;28;20221;-42
2022/06/14 18:18:00;;;;;;;4.05;1.55;;;;;;;;;;5031662;28;20290;-43
2022/06/14 18:23:23;;;;;;;5.43;1.40;;;;;;;;;;5028258;28;20217;-38
2022/06/14 18:25:53;;;;;;;4.47;1.55;;;;;;;;;;5031154;28;20255;-37
2022/06/14 18:28:26;;;;;;;4.45;1.48;;;;;;;;;;5028025;28;20243;-39
2022/06/14 18:30:54;;;;;;;4.47;1.35;;;;;;;;;;5027484;28;20223;-39
2022/06/14 18:33:25;;;;;;;7.28;1.80;;;;;;;;;;5029151;28;20224;-41
2022/06/14 18:36:02;;;;;;;6.20;1.48;;;;;;;;;;5031102;28;20232;-38
2022/06/14 18:38:37;;;;;;;3.90;1.40;;;;;;;;;;5031277;28;20228;-38
2022/06/14 18:41:29;;;;;;;5.93;1.60;;;;;;;;;;5031423;28;20239;-38
2022/06/14 18:44:06;;;;;;;4.25;1.75;;;;;;;;;;5030754;28;20227;-39
2022/06/14 18:46:58;;;;;;;5.10;1.60;;;;;;;;;;5031908;28;20565;-38
2022/06/14 18:49:52;;;;;;;4.82;1.70;;;;;;;;;;5030437;28;20216;-39
2022/06/14 18:52:23;;;;;;;6.40;1.70;;;;;;;;;;5079491;28;20558;-40
2022/06/14 18:55:13;;;;;;;5.00;1.67;;;;;;;;;;5074168;28;20223;-38
2022/06/14 18:57:47;;;;;;;4.97;1.33;;;;;;;;;;5059683;28;20220;-38
2022/06/14 19:00:29;;;;;;;6.70;1.60;;;;;;;;;;5088692;28;20214;-38
2022/06/14 19:03:21;;;;;;;4.88;1.60;;;;;;;;;;5096326;28;20206;-39
2022/06/14 19:05:56;;;;;;;9.27;1.90;;;;;;;;;;5096692;28;20238;-38
2022/06/14 19:08:46;;;;;;;7.03;2.00;;;;;;;;;;5096997;28;20233;-39
2022/06/14 19:11:33;;;;;;;12.57;2.20;;;;;;;;;;5061429;28;20224;-42
2022/06/14 19:14:03;;;;;;;9.38;2.15;;;;;;;;;;5076919;28;20706;-41
2022/06/14 19:17:03;;;;;;;7.30;2.45;;;;;;;;;;5084713;28;20627;-40
2022/06/14 19:19:38;;;;;;;7.18;2.65;;;;;;;;;;5044814;28;20255;-38
2022/06/14 19:22:17;;;;;;;11.25;2.60;;;;;;;;;;5075376;28;20226;-38
2022/06/14 19:25:13;;;;;;;6.15;2.35;;;;;;;;;;5075771;28;20742;-39
2022/06/14 19:28:02;;;;;;;6.22;2.22;;;;;;;;;;5075963;28;20223;-38
2022/06/14 19:30:37;;;;;;;4.22;2.15;;;;;;;;;;5058684;28;20237;-38
2022/06/14 19:33:13;;;;;;;5.18;2.00;;;;;;;;;;5075955;28;20230;-39
2022/06/14 19:35:46;;;;;;;4.32;1.83;;;;;;;;;;5075772;28;20528;-37
2022/06/14 19:38:16;;;;;;;9.27;2.13;;;;;;;;;;5073119;28;20226;-38
2022/06/14 19:40:49;;;;;;;4.28;1.70;;;;;;;;;;5083376;28;20687;-39
2022/06/14 19:43:28;;;;;;;5.53;2.17;;;;;;;;;;5075011;28;20276;-39
2022/06/14 19:46:14;;;;;;;5.32;1.98;;;;;;;;;;5075085;28;20230;-38
2022/06/14 19:51:32;;;;;;;5.45;2.33;;;;;;;;;;5074900;28;20660;-38
2022/06/14 19:54:00;;;;;;;7.20;2.10;;;;;;;;;;5077936;28;20244;-38
2022/06/14 19:56:30;;;;;;;8.57;2.20;;;;;;;;;;5094939;28;20681;-41
2022/06/14 19:59:03;;;;;;;7.13;2.42;;;;;;;;;;5076231;28;20288;-39
2022/06/14 20:01:47;;;;;;;5.90;1.95;;;;;;;;;;5074526;28;20227;-39
2022/06/14 20:04:30;;;;;;;5.57;2.10;;;;;;;;;;5075214;28;20227;-40
2022/06/14 20:07:20;;;;;;;6.03;2.10;;;;;;;;;;5095772;28;20237;-39
2022/06/14 20:10:03;;;;;;;6.32;2.03;;;;;;;;;;5078207;28;20584;-38
2022/06/14 20:12:34;;;;;;;6.43;2.15;;;;;;;;;;5079162;28;20225;-39
2022/06/14 20:15:12;;;;;;;6.80;2.17;;;;;;;;;;5085511;28;20231;-38
2022/06/14 20:17:46;;;;;;;6.72;1.98;;;;;;;;;;5082911;28;20272;-38
2022/06/14 20:20:24;;;;;;;11.63;2.20;;;;;;;;;;5073849;28;20225;-38